Time;durP1;ratioP1;P1;durP2;ratioP2;P2;SDS_P1;SDS_P2;PMS_P1;PMS_P2;Temp;Humidity;BMP_temperature;BMP_pressure;BME280_temperature;BME280_humidity;BME280_pressure;Samples;Min_cycle;Max_cycle;Signal;HPM_P1;HPM_P2
2020/12/12 00:01:23;;;;;;;32.17;14.63;;;;;;;-2.78;83.62;99688.90;130082;1093;23916;-62
2020/12/12 00:03:51;;;;;;;35.83;15.47;;;;;;;-2.78;83.93;99688.90;130248;1098;23283;-62
2020/12/12 00:06:22;;;;;;;34.47;16.77;;;;;;;-2.76;83.87;99686.91;130100;1093;23242;-62
2020/12/12 00:08:49;;;;;;;82.97;28.57;;;;;;;-2.76;83.94;99682.41;130241;1093;23243;-62
2020/12/12 00:11:19;;;;;;;69.67;23.63;;;;;;;-2.74;84.16;99690.23;130120;1093;23222;-62
2020/12/12 00:13:46;;;;;;;39.40;16.67;;;;;;;-2.75;84.23;99688.57;130249;1093;23367;-62
2020/12/12 00:16:17;;;;;;;50.95;21.70;;;;;;;-2.74;83.95;99684.91;130148;1093;23249;-62
2020/12/12 00:18:45;;;;;;;108.40;32.77;;;;;;;-2.73;83.86;99691.88;130260;1091;23219;-62
2020/12/12 00:21:14;;;;;;;90.60;30.43;;;;;;;-2.74;84.18;99683.04;130097;1092;23175;-62
2020/12/12 00:23:42;;;;;;;34.80;14.77;;;;;;;-2.72;83.73;99675.70;130213;1098;24242;-62
2020/12/12 00:26:11;;;;;;;26.73;13.70;;;;;;;-2.71;83.68;99685.38;130233;1092;24199;-62
2020/12/12 00:28:38;;;;;;;28.17;14.53;;;;;;;-2.68;84.08;99674.38;130156;1093;23168;-62
2020/12/12 00:31:06;;;;;;;31.13;13.40;;;;;;;-2.67;84.27;99669.88;130218;1093;23224;-62
2020/12/12 00:33:33;;;;;;;52.97;20.33;;;;;;;-2.64;84.42;99669.55;130122;1093;23176;-62
2020/12/12 00:36:01;;;;;;;42.90;17.93;;;;;;;-2.63;83.85;99660.55;130243;1098;23197;-62
2020/12/12 00:38:31;;;;;;;77.77;28.43;;;;;;;-2.62;84.06;99655.05;130092;1093;23268;-62
2020/12/12 00:40:59;;;;;;;47.30;19.15;;;;;;;-2.60;83.81;99662.88;130232;1092;23196;-62
2020/12/12 00:43:26;;;;;;;43.07;18.30;;;;;;;-2.56;84.16;99662.34;130127;1092;23221;-62
2020/12/12 00:45:54;;;;;;;32.97;14.07;;;;;;;-2.56;84.07;99662.34;130240;1092;23293;-62
2020/12/12 00:48:22;;;;;;;117.10;42.37;;;;;;;-2.55;84.00;99656.02;130096;1099;23174;-61
2020/12/12 00:50:49;;;;;;;47.53;21.03;;;;;;;-2.54;83.67;99652.34;130205;1098;23346;-62
2020/12/12 00:53:17;;;;;;;37.50;17.87;;;;;;;-2.53;84.19;99656.67;130074;1093;23247;-62
2020/12/12 00:55:44;;;;;;;28.80;14.00;;;;;;;-2.52;83.67;99658.34;130229;1098;23238;-62
2020/12/12 00:58:12;;;;;;;36.00;17.80;;;;;;;-2.48;83.83;99661.51;130121;1093;23245;-62
2020/12/12 01:00:40;;;;;;;41.27;18.20;;;;;;;-2.47;84.04;99657.84;130225;1093;23201;-62
2020/12/12 01:03:07;;;;;;;29.90;14.57;;;;;;;-2.45;83.98;99657.67;130074;1092;23229;-62
2020/12/12 01:05:35;;;;;;;34.00;16.20;;;;;;;-2.43;84.31;99660.97;130224;1093;23227;-62
2020/12/12 01:08:06;;;;;;;34.10;14.83;;;;;;;-2.41;83.99;99657.14;130071;1098;23262;-63
2020/12/12 01:10:33;;;;;;;30.47;13.70;;;;;;;-2.41;83.88;99666.98;130227;1093;23823;-62
2020/12/12 01:13:01;;;;;;;30.23;13.97;;;;;;;-2.38;83.96;99663.97;130267;1092;23200;-63
2020/12/12 01:15:31;;;;;;;23.93;13.33;;;;;;;-2.36;84.04;99659.30;130239;1098;23637;-61
2020/12/12 01:17:59;;;;;;;32.23;14.50;;;;;;;-2.37;83.92;99649.63;130255;1093;23322;-62
2020/12/12 01:20:26;;;;;;;28.03;12.70;;;;;;;-2.36;83.92;99649.47;130120;1093;23936;-62
2020/12/12 01:22:59;;;;;;;26.50;12.73;;;;;;;-2.35;83.83;99652.96;130236;1098;23860;-62
2020/12/12 01:25:27;;;;;;;23.77;12.43;;;;;;;-2.36;83.81;99646.80;130095;1093;23251;-62
2020/12/12 01:27:55;;;;;;;30.13;12.70;;;;;;;-2.34;83.80;99646.62;130240;1092;23215;-62
2020/12/12 01:30:23;;;;;;;30.03;13.83;;;;;;;-2.35;83.90;99656.47;130043;1093;23230;-62
2020/12/12 01:32:50;;;;;;;27.00;12.50;;;;;;;-2.33;83.78;99648.29;130205;1093;23284;-62
2020/12/12 01:35:18;;;;;;;24.80;11.90;;;;;;;-2.34;83.86;99651.96;130111;1099;23216;-62
2020/12/12 01:37:48;;;;;;;23.27;11.63;;;;;;;-2.34;83.40;99660.80;130223;1092;24004;-62
2020/12/12 01:40:16;;;;;;;22.93;11.83;;;;;;;-2.33;83.76;99642.95;130101;1098;23189;-62
2020/12/12 01:42:43;;;;;;;27.70;12.57;;;;;;;-2.31;83.60;99659.63;130218;1091;23175;-62
2020/12/12 01:45:13;;;;;;;22.30;11.87;;;;;;;-2.33;83.52;99648.29;130088;1093;23978;-62
2020/12/12 01:47:41;;;;;;;22.67;12.23;;;;;;;-2.31;83.73;99659.63;130236;1098;23325;-62
2020/12/12 01:50:08;;;;;;;19.67;10.63;;;;;;;-2.30;83.54;99646.09;130060;1093;23252;-62
2020/12/12 01:52:36;;;;;;;19.37;11.13;;;;;;;-2.27;83.34;99655.59;130229;1093;23326;-62
2020/12/12 01:55:04;;;;;;;20.63;10.83;;;;;;;-2.28;83.57;99644.08;130114;1093;23247;-62
2020/12/12 01:57:35;;;;;;;23.57;12.23;;;;;;;-2.28;83.89;99648.59;130238;1093;24996;-62
2020/12/12 02:00:04;;;;;;;22.27;11.60;;;;;;;-2.27;83.80;99645.75;130057;1098;23184;-62
2020/12/12 02:02:32;;;;;;;23.53;11.17;;;;;;;-2.27;83.53;99653.75;130262;1092;23929;-62
2020/12/12 02:05:00;;;;;;;22.23;12.27;;;;;;;-2.26;83.54;99652.75;130227;1093;24017;-62
2020/12/12 02:07:29;;;;;;;23.50;10.17;;;;;;;-2.25;83.33;99650.91;130167;1099;23189;-62
2020/12/12 02:09:56;;;;;;;22.73;11.07;;;;;;;-2.24;83.24;99653.41;130231;1093;24704;-62
2020/12/12 02:12:24;;;;;;;21.37;11.37;;;;;;;-2.26;83.39;99647.41;130126;1092;23252;-62
2020/12/12 02:14:55;;;;;;;21.93;12.10;;;;;;;-2.27;83.32;99635.08;130249;1092;23251;-62
2020/12/12 02:17:22;;;;;;;21.97;11.40;;;;;;;-2.26;83.30;99641.24;130061;1093;23263;-62
2020/12/12 02:19:50;;;;;;;21.17;11.53;;;;;;;-2.25;83.29;99637.58;130237;1093;23260;-62
2020/12/12 02:22:18;;;;;;;26.93;12.23;;;;;;;-2.24;83.23;99637.41;130100;1092;23171;-62
2020/12/12 02:24:47;;;;;;;28.63;13.73;;;;;;;-2.35;83.13;99618.28;130196;1093;23855;-62
2020/12/12 02:27:14;;;;;;;24.03;11.87;;;;;;;-2.24;82.96;99640.08;130101;1098;23192;-63
2020/12/12 02:29:49;;;;;;;26.77;14.07;;;;;;;-2.25;82.96;99626.90;130214;1093;23650;-63
2020/12/12 02:32:17;;;;;;;22.67;12.33;;;;;;;-2.25;83.20;99624.23;130082;1093;24157;-63
2020/12/12 02:34:45;;;;;;;22.73;12.40;;;;;;;-2.27;82.94;99627.06;130218;1099;23159;-63
2020/12/12 02:37:16;;;;;;;22.03;11.70;;;;;;;-2.29;83.15;99630.91;130056;1092;23171;-63
2020/12/12 02:39:43;;;;;;;23.30;12.50;;;;;;;-2.32;82.71;99621.44;130225;1093;23154;-63
2020/12/12 02:42:11;;;;;;;21.70;11.27;;;;;;;-2.32;82.92;99628.61;130148;1093;23229;-63
2020/12/12 02:44:40;;;;;;;21.50;10.43;;;;;;;-2.32;83.02;99632.11;130240;1098;23184;-63
2020/12/12 02:47:08;;;;;;;30.40;13.90;;;;;;;-2.32;82.96;99632.11;130114;1093;23295;-63
2020/12/12 02:49:36;;;;;;;25.63;15.00;;;;;;;-2.31;83.00;99625.74;130214;1093;23167;-63
2020/12/12 02:52:03;;;;;;;21.55;11.90;;;;;;;-2.34;82.79;99623.45;130070;1092;23204;-63
2020/12/12 02:54:30;;;;;;;22.03;11.20;;;;;;;-2.38;83.03;99630.13;130236;1098;23235;-63
2020/12/12 02:56:58;;;;;;;22.40;12.20;;;;;;;-2.40;82.84;99628.63;130246;1093;23207;-62
2020/12/12 02:59:26;;;;;;;25.93;12.80;;;;;;;-2.41;82.95;99624.29;130119;1093;23209;-62
2020/12/12 03:01:53;;;;;;;29.53;12.57;;;;;;;-2.44;82.87;99617.45;130216;1093;23239;-62
2020/12/12 03:04:24;;;;;;;22.87;11.43;;;;;;;-2.45;82.60;99636.33;130096;1092;23281;-62
2020/12/12 03:06:52;;;;;;;24.27;12.23;;;;;;;-2.48;82.86;99634.00;130207;1099;23218;-62
2020/12/12 03:09:19;;;;;;;22.70;11.50;;;;;;;-2.51;83.34;99629.84;130060;1093;23195;-63
2020/12/12 03:11:47;;;;;;;30.20;12.17;;;;;;;-2.51;82.86;99632.50;130227;1091;23577;-62
2020/12/12 03:14:15;;;;;;;25.37;12.60;;;;;;;-2.52;83.03;99626.34;130101;1092;23206;-62
2020/12/12 03:16:42;;;;;;;24.33;12.60;;;;;;;-2.53;82.67;99632.67;130251;1093;23812;-62
2020/12/12 03:19:10;;;;;;;25.07;12.53;;;;;;;-2.54;82.50;99631.00;130107;1099;23175;-62
2020/12/12 03:21:38;;;;;;;23.67;12.57;;;;;;;-2.54;83.07;99624.84;130235;1093;24211;-62
2020/12/12 03:24:07;;;;;;;29.43;12.97;;;;;;;-2.57;83.14;99628.67;130097;1093;23183;-62
2020/12/12 03:26:34;;;;;;;20.17;11.70;;;;;;;-2.58;82.94;99632.34;130260;1098;23853;-62
2020/12/12 03:29:10;;;;;;;23.70;12.13;;;;;;;-2.59;82.35;99638.67;130107;1093;23173;-62
2020/12/12 03:31:37;;;;;;;23.03;11.60;;;;;;;-2.61;82.86;99642.55;130203;1093;25645;-62
2020/12/12 03:34:05;;;;;;;24.60;13.03;;;;;;;-2.62;82.73;99638.21;130081;1093;24182;-62
2020/12/12 03:36:38;;;;;;;21.80;11.85;;;;;;;-2.66;82.80;99632.38;127528;1093;23284;-64
2020/12/12 03:39:06;;;;;;;24.17;12.20;;;;;;;-2.67;82.72;99641.38;125773;1098;23857;-64
2020/12/12 03:41:33;;;;;;;26.53;13.03;;;;;;;-2.71;82.65;99640.05;125849;1093;23395;-61
2020/12/12 03:44:01;;;;;;;23.63;12.73;;;;;;;-2.84;83.12;99621.08;125771;1093;26644;-62
2020/12/12 03:46:29;;;;;;;24.75;12.20;;;;;;;-2.73;82.73;99638.55;125929;1099;23339;-63
2020/12/12 03:48:57;;;;;;;23.90;11.40;;;;;;;-2.75;83.28;99636.08;130231;1093;23248;-64
2020/12/12 03:51:24;;;;;;;28.60;12.07;;;;;;;-2.75;83.03;99637.91;130124;1093;23785;-64
2020/12/12 03:53:52;;;;;;;32.70;15.03;;;;;;;-2.76;82.74;99644.24;130187;1093;24244;-64
2020/12/12 03:56:19;;;;;;;27.57;13.10;;;;;;;-2.76;83.09;99642.41;130126;1093;23270;-64
2020/12/12 03:58:52;;;;;;;26.87;12.27;;;;;;;-2.78;83.30;99639.08;130254;1099;23202;-64
2020/12/12 04:01:19;;;;;;;25.07;11.60;;;;;;;-2.78;82.86;99647.08;130103;1091;23287;-64
2020/12/12 04:03:47;;;;;;;25.23;12.50;;;;;;;-2.79;83.24;99644.58;130282;1098;23342;-63
2020/12/12 04:06:15;;;;;;;23.23;11.67;;;;;;;-2.80;82.82;99642.91;130099;1092;23195;-63
2020/12/12 04:08:42;;;;;;;20.37;10.30;;;;;;;-2.80;82.68;99632.24;130235;1093;24191;-63
2020/12/12 04:11:09;;;;;;;26.87;13.03;;;;;;;-2.82;82.85;99629.74;130124;1093;23185;-63
2020/12/12 04:13:42;;;;;;;24.00;12.10;;;;;;;-2.82;83.14;99637.73;130255;1092;23653;-63
2020/12/12 04:16:10;;;;;;;20.30;11.60;;;;;;;-2.82;82.97;99636.91;130083;1092;23233;-63
2020/12/12 04:18:37;;;;;;;25.07;11.80;;;;;;;-2.85;83.08;99636.23;130239;1093;23246;-63
2020/12/12 04:21:07;;;;;;;26.50;12.27;;;;;;;-2.85;82.80;99627.41;130106;1093;23167;-63
2020/12/12 04:23:35;;;;;;;25.47;11.77;;;;;;;-2.85;82.89;99622.91;130262;1092;23219;-63
2020/12/12 04:26:03;;;;;;;24.03;10.73;;;;;;;-2.86;83.29;99625.74;130102;1092;23304;-63
2020/12/12 04:28:31;;;;;;;22.50;11.57;;;;;;;-2.85;82.51;99630.08;130243;1092;23231;-63
2020/12/12 04:30:58;;;;;;;20.27;11.13;;;;;;;-2.87;82.76;99635.58;130105;1093;23273;-63
2020/12/12 04:33:27;;;;;;;28.77;12.47;;;;;;;-2.87;82.46;99627.58;130226;1093;24658;-63
2020/12/12 04:35:55;;;;;;;20.20;11.43;;;;;;;-2.88;82.90;99627.74;130166;1092;23255;-64
2020/12/12 04:38:23;;;;;;;23.97;12.67;;;;;;;-2.92;82.40;99631.77;130211;1098;23850;-63
2020/12/12 04:41:01;;;;;;;20.17;11.73;;;;;;;-2.96;82.82;99622.44;130233;1093;23251;-63
2020/12/12 04:43:29;;;;;;;25.00;10.87;;;;;;;-3.00;82.81;99626.43;130103;1093;23240;-63
2020/12/12 04:45:57;;;;;;;24.33;13.13;;;;;;;-3.04;82.30;99623.30;130223;1093;23251;-63
2020/12/12 04:48:25;;;;;;;19.43;10.70;;;;;;;-3.08;82.61;99624.62;130052;1092;23292;-63
2020/12/12 04:50:53;;;;;;;22.40;11.37;;;;;;;-3.08;82.89;99637.11;130226;1098;23284;-63
2020/12/12 04:53:24;;;;;;;18.57;9.67;;;;;;;-3.10;82.78;99618.63;130052;1093;23184;-63
2020/12/12 04:55:53;;;;;;;28.20;12.27;;;;;;;-3.09;82.38;99622.13;130283;1093;23204;-64
2020/12/12 04:58:23;;;;;;;20.37;10.63;;;;;;;-3.11;82.34;99621.45;130109;1092;23315;-63
2020/12/12 05:00:52;;;;;;;21.00;9.93;;;;;;;-3.12;82.07;99612.63;130257;1093;23204;-63
2020/12/12 05:03:20;;;;;;;18.83;10.30;;;;;;;-3.15;81.84;99612.13;130084;1098;23196;-64
2020/12/12 05:05:48;;;;;;;21.33;10.87;;;;;;;-3.19;81.65;99630.30;129061;1093;23399;-63
2020/12/12 05:08:16;;;;;;;19.40;10.43;;;;;;;-3.23;82.24;99613.81;125883;1093;23344;-62
2020/12/12 05:10:45;;;;;;;22.87;12.50;;;;;;;-3.26;82.14;99615.97;130240;1098;23852;-63
2020/12/12 05:13:33;;;;;;;22.90;11.93;;;;;;;-3.30;81.96;99610.13;130075;1093;23643;-63
2020/12/12 05:16:01;;;;;;;26.07;12.80;;;;;;;-3.33;82.13;99604.33;130232;1093;23209;-63
2020/12/12 05:18:30;;;;;;;26.50;13.07;;;;;;;-3.38;81.19;99602.16;130134;1093;23228;-63
2020/12/12 05:20:57;;;;;;;30.63;14.63;;;;;;;-3.40;82.08;99598.83;130241;1093;23243;-63
2020/12/12 05:23:25;;;;;;;21.23;11.13;;;;;;;-3.39;81.64;99605.81;130063;1098;23260;-63
2020/12/12 05:25:53;;;;;;;22.07;10.63;;;;;;;-3.42;81.77;99607.97;130223;1092;24189;-63
2020/12/12 05:28:24;;;;;;;23.97;12.13;;;;;;;-3.46;80.84;99611.99;130049;1094;23276;-64
2020/12/12 05:30:52;;;;;;;19.27;9.97;;;;;;;-3.54;80.80;99610.14;130236;1098;23216;-63
2020/12/12 05:33:24;;;;;;;23.40;11.03;;;;;;;-3.60;81.49;99616.11;130115;1093;24174;-63
2020/12/12 05:35:52;;;;;;;17.80;10.10;;;;;;;-3.64;81.38;99609.48;130235;1098;24174;-63
2020/12/12 05:38:20;;;;;;;19.10;10.53;;;;;;;-3.67;81.50;99609.80;130155;1093;23187;-63
2020/12/12 05:40:55;;;;;;;17.90;10.60;;;;;;;-3.70;80.68;99620.77;130201;1093;23228;-64
2020/12/12 05:43:29;;;;;;;23.65;11.20;;;;;;;-3.73;80.73;99621.92;130240;1098;23353;-63
2020/12/12 05:45:59;;;;;;;19.83;9.23;;;;;;;-3.75;81.04;99623.91;130135;1093;23222;-63
2020/12/12 05:48:26;;;;;;;20.97;10.30;;;;;;;-3.77;80.78;99615.29;130251;1092;23207;-63
2020/12/12 05:50:54;;;;;;;24.50;13.10;;;;;;;-3.78;81.46;99623.44;130089;1098;23183;-63
2020/12/12 05:53:22;;;;;;;17.57;10.23;;;;;;;-3.78;80.88;99620.77;130206;1093;23327;-64
2020/12/12 05:55:49;;;;;;;32.00;16.50;;;;;;;-3.79;81.33;99625.27;130063;1093;23306;-63
2020/12/12 05:58:17;;;;;;;18.40;10.27;;;;;;;-3.79;81.06;99619.94;130179;1093;23233;-63
2020/12/12 06:00:44;;;;;;;22.87;11.83;;;;;;;-3.81;80.54;99618.44;130038;1093;23195;-63
2020/12/12 06:03:29;;;;;;;26.60;11.80;;;;;;;-3.84;81.60;99610.77;130235;1098;24162;-63
2020/12/12 06:06:04;;;;;;;33.50;14.67;;;;;;;-3.86;81.29;99612.75;130065;1092;23185;-64
2020/12/12 06:08:38;;;;;;;44.80;18.77;;;;;;;-3.87;81.85;99606.59;130240;1093;23276;-63
2020/12/12 06:11:07;;;;;;;32.20;15.93;;;;;;;-3.85;80.76;99611.77;130117;1092;23181;-63
2020/12/12 06:13:40;;;;;;;33.83;14.43;;;;;;;-3.84;81.39;99605.44;130198;1093;23216;-63
2020/12/12 06:16:08;;;;;;;19.50;10.77;;;;;;;-3.86;80.27;99612.75;128263;1092;23325;-63
2020/12/12 06:19:02;;;;;;;29.20;19.43;;;;;;;-3.86;81.70;99618.08;130255;1098;24123;-63
2020/12/12 06:21:29;;;;;;;31.07;15.60;;;;;;;-3.85;80.77;99619.75;130089;1093;23254;-63
2020/12/12 06:23:59;;;;;;;21.87;9.87;;;;;;;-3.86;81.40;99618.08;130252;1093;23295;-63
2020/12/12 06:26:47;;;;;;;22.43;11.37;;;;;;;-3.87;80.65;99619.91;130128;1098;23237;-64
2020/12/12 06:29:17;;;;;;;67.90;23.70;;;;;;;-3.87;81.58;99614.58;130231;1093;23181;-63
2020/12/12 06:31:44;;;;;;;36.20;16.00;;;;;;;-3.88;80.92;99615.58;130068;1093;23175;-63
2020/12/12 06:34:12;;;;;;;22.83;11.73;;;;;;;-3.87;80.70;99613.75;130225;1098;23760;-64
2020/12/12 06:36:44;;;;;;;34.27;14.00;;;;;;;-3.86;80.94;99608.27;130074;1092;23181;-63
2020/12/12 06:39:24;;;;;;;62.20;27.17;;;;;;;-3.83;81.00;99612.44;130230;1098;23207;-63
2020/12/12 06:41:55;;;;;;;20.90;12.20;;;;;;;-3.81;81.26;99613.11;130080;1093;23232;-63
2020/12/12 06:44:34;;;;;;;32.83;14.57;;;;;;;-3.83;81.57;99610.61;130255;1093;23180;-64
2020/12/12 06:47:02;;;;;;;24.33;11.43;;;;;;;-3.79;81.55;99619.11;130071;1099;23193;-63
2020/12/12 06:49:33;;;;;;;20.60;11.40;;;;;;;-3.79;81.53;99616.45;130185;1093;23232;-63
2020/12/12 06:52:00;;;;;;;22.83;11.67;;;;;;;-3.77;80.93;99612.63;130102;1093;23610;-64
2020/12/12 06:54:28;;;;;;;21.47;11.57;;;;;;;-3.76;81.58;99605.48;130220;1093;23358;-63
2020/12/12 06:56:55;;;;;;;19.17;11.17;;;;;;;-3.73;81.69;99607.78;130146;1091;24252;-63
2020/12/12 06:59:27;;;;;;;20.80;12.17;;;;;;;-3.72;80.86;99607.63;130233;1092;23634;-63
2020/12/12 07:01:55;;;;;;;22.33;12.53;;;;;;;-3.74;80.73;99598.97;130084;1099;24064;-64
2020/12/12 07:04:24;;;;;;;22.70;11.33;;;;;;;-3.76;81.60;99605.48;130247;1093;23196;-64
2020/12/12 07:06:55;;;;;;;24.20;11.30;;;;;;;-3.76;81.58;99600.15;130068;1093;23340;-63
2020/12/12 07:09:22;;;;;;;39.30;16.13;;;;;;;-3.76;80.71;99600.15;130215;1099;23267;-63
2020/12/12 07:11:50;;;;;;;21.80;11.17;;;;;;;-3.80;80.42;99601.47;130198;1092;23235;-63
2020/12/12 07:14:17;;;;;;;21.73;11.33;;;;;;;-3.81;81.68;99600.63;130081;1098;23154;-63
2020/12/12 07:16:45;;;;;;;59.43;20.43;;;;;;;-3.80;80.69;99596.14;130241;1093;23262;-65
2020/12/12 07:19:13;;;;;;;24.77;12.37;;;;;;;-3.76;81.12;99594.83;130080;1093;24693;-65
2020/12/12 07:21:40;;;;;;;21.20;10.80;;;;;;;-3.76;81.11;99595.66;130217;1097;23287;-65
2020/12/12 07:24:07;;;;;;;28.10;12.57;;;;;;;-3.74;81.20;99588.31;130054;1093;23244;-65
2020/12/12 07:26:35;;;;;;;32.50;15.00;;;;;;;-3.72;81.49;99583.66;130250;1099;23337;-65
2020/12/12 07:29:02;;;;;;;46.67;18.57;;;;;;;-3.66;81.68;99576.86;130083;1093;24126;-65
2020/12/12 07:31:30;;;;;;;19.83;10.97;;;;;;;-3.64;81.40;99583.69;130190;1093;23218;-65
2020/12/12 07:34:00;;;;;;;30.27;16.73;;;;;;;-3.63;80.65;99574.70;130061;1099;23336;-64
2020/12/12 07:36:28;;;;;;;20.53;11.53;;;;;;;-3.58;81.30;99574.19;130200;1093;23937;-65
2020/12/12 07:38:55;;;;;;;19.23;10.70;;;;;;;-3.58;81.47;99580.34;130084;1093;23162;-65
2020/12/12 07:41:25;;;;;;;24.23;11.60;;;;;;;-3.54;81.21;99582.68;130148;1093;23228;-65
2020/12/12 07:43:54;;;;;;;21.70;12.60;;;;;;;-3.56;81.35;99583.67;129990;1092;24170;-64
2020/12/12 07:46:37;;;;;;;20.60;11.73;;;;;;;-3.56;81.44;99585.50;130232;1093;24119;-63
2020/12/12 07:49:07;;;;;;;19.27;10.40;;;;;;;-3.52;80.49;99583.34;130073;1093;23270;-64
2020/12/12 07:51:35;;;;;;;23.10;11.30;;;;;;;-3.51;80.76;99585.84;130235;1092;23282;-64
2020/12/12 07:54:22;;;;;;;20.73;10.80;;;;;;;-3.49;80.73;99588.34;130083;1093;23208;-64
2020/12/12 07:56:54;;;;;;;20.43;11.83;;;;;;;-3.47;81.30;99587.19;130198;1091;24210;-64
2020/12/12 07:59:22;;;;;;;20.63;10.97;;;;;;;-3.43;80.95;99587.66;130063;1092;23235;-63
2020/12/12 08:01:49;;;;;;;26.83;12.00;;;;;;;-3.40;81.23;99582.84;130256;1098;23205;-63
2020/12/12 08:04:21;;;;;;;25.00;10.63;;;;;;;-3.37;80.81;99579.85;130099;1093;23223;-63
2020/12/12 08:06:50;;;;;;;20.90;11.00;;;;;;;-3.34;81.59;99576.86;130190;1092;23299;-64
2020/12/12 08:09:19;;;;;;;22.07;11.67;;;;;;;-3.33;80.87;99583.02;130100;1093;23187;-64
2020/12/12 08:11:55;;;;;;;25.17;11.83;;;;;;;-3.31;80.71;99584.49;130222;1093;23235;-64
2020/12/12 08:14:24;;;;;;;21.70;10.77;;;;;;;-3.31;81.28;99581.00;130068;1093;23201;-64
2020/12/12 08:16:57;;;;;;;20.60;10.10;;;;;;;-3.31;81.28;99578.33;130168;1098;23195;-64
2020/12/12 08:19:25;;;;;;;25.57;11.07;;;;;;;-3.29;81.30;99577.17;130188;1093;24641;-63
2020/12/12 08:22:02;;;;;;;19.47;10.63;;;;;;;-3.32;80.77;99574.84;130083;1098;23233;-63
2020/12/12 08:24:31;;;;;;;25.23;11.37;;;;;;;-3.33;81.34;99575.03;130185;1093;23932;-64
2020/12/12 08:26:59;;;;;;;24.03;11.80;;;;;;;-3.35;80.62;99572.53;130029;1093;24194;-63
2020/12/12 08:29:26;;;;;;;25.70;12.63;;;;;;;-3.35;81.05;99577.86;130233;1093;24178;-64
2020/12/12 08:31:54;;;;;;;20.53;10.23;;;;;;;-3.36;81.31;99573.53;130031;1093;23937;-63
2020/12/12 08:34:25;;;;;;;19.07;9.80;;;;;;;-3.38;81.27;99570.20;130231;1098;23196;-63
2020/12/12 08:36:52;;;;;;;22.50;10.77;;;;;;;-3.38;80.94;99575.52;130071;1092;23210;-65
2020/12/12 08:39:19;;;;;;;22.47;10.87;;;;;;;-3.37;81.01;99576.36;130193;1093;24559;-64
2020/12/12 08:41:48;;;;;;;20.30;11.73;;;;;;;-3.34;80.75;99576.86;130067;1093;24191;-63
2020/12/12 08:44:22;;;;;;;26.87;10.63;;;;;;;-3.34;80.92;99578.69;130213;1093;23936;-63
2020/12/12 08:46:53;;;;;;;19.57;10.83;;;;;;;-3.30;81.61;99566.68;130088;1093;23230;-63
2020/12/12 08:50:22;;;;;;;22.27;11.80;;;;;;;-3.32;80.84;99572.17;125584;1098;23315;-62
2020/12/12 08:52:50;;;;;;;25.97;11.87;;;;;;;-3.31;81.53;99565.84;129781;1093;23213;-62
2020/12/12 08:55:18;;;;;;;22.17;11.63;;;;;;;-3.30;81.33;99567.51;129957;1093;23213;-63
2020/12/12 08:58:00;;;;;;;23.77;11.27;;;;;;;-3.32;81.67;99556.19;129829;1100;23247;-63
2020/12/12 09:00:27;;;;;;;21.97;11.73;;;;;;;-3.32;80.96;99563.38;129915;1093;23312;-63
2020/12/12 09:03:01;;;;;;;22.00;11.83;;;;;;;-3.29;81.09;99565.68;129794;1093;23211;-63
2020/12/12 09:05:35;;;;;;;22.33;10.33;;;;;;;-3.29;81.48;99555.86;129972;1100;23232;-63
2020/12/12 09:08:15;;;;;;;25.63;11.00;;;;;;;-3.28;81.83;99551.36;129767;1093;23138;-62
2020/12/12 09:10:47;;;;;;;24.40;11.10;;;;;;;-3.28;81.97;99554.02;129951;1093;23221;-62
2020/12/12 09:13:14;;;;;;;24.40;11.25;;;;;;;-3.27;82.07;99559.19;129844;1093;23172;-63
2020/12/12 09:15:42;;;;;;;22.63;11.37;;;;;;;-3.24;81.76;99556.19;129953;1093;23301;-62
2020/12/12 09:18:15;;;;;;;26.53;12.03;;;;;;;-3.22;81.40;99553.36;129830;1093;23207;-63
2020/12/12 09:20:43;;;;;;;18.90;11.10;;;;;;;-3.19;81.91;99552.20;130065;1093;23158;-63
2020/12/12 09:23:10;;;;;;;20.13;10.07;;;;;;;-3.17;81.57;99552.87;129834;1093;23216;-62
2020/12/12 09:25:37;;;;;;;22.43;10.93;;;;;;;-3.18;82.15;99549.38;130147;1100;23274;-63
2020/12/12 09:28:05;;;;;;;20.77;11.30;;;;;;;-3.21;81.59;99544.37;129803;1093;23166;-63
2020/12/12 09:30:32;;;;;;;24.33;11.10;;;;;;;-3.22;81.74;99534.71;129967;1093;23270;-63
2020/12/12 09:33:00;;;;;;;19.07;10.67;;;;;;;-3.19;81.60;99523.72;129861;1093;23971;-63
2020/12/12 09:35:27;;;;;;;23.73;11.17;;;;;;;-3.20;81.58;99535.38;129956;1093;24232;-63
2020/12/12 09:37:54;;;;;;;25.03;10.60;;;;;;;-3.21;81.43;99533.72;129830;1093;23293;-63
2020/12/12 09:40:22;;;;;;;28.50;12.23;;;;;;;-3.23;82.37;99525.06;129973;1093;23196;-63
2020/12/12 09:42:51;;;;;;;22.27;11.17;;;;;;;-3.22;82.44;99521.39;129889;1092;23854;-63
2020/12/12 09:45:18;;;;;;;21.93;11.93;;;;;;;-3.21;82.24;99513.23;129972;1101;23177;-62
2020/12/12 09:47:45;;;;;;;28.57;14.50;;;;;;;-3.19;81.68;99515.73;129938;1093;23160;-63
2020/12/12 09:50:13;;;;;;;24.33;12.30;;;;;;;-3.17;82.27;99513.70;129830;1093;23199;-63
2020/12/12 09:52:40;;;;;;;23.60;11.93;;;;;;;-3.16;82.20;99502.05;129901;1093;23223;-63
2020/12/12 09:55:10;;;;;;;20.40;11.47;;;;;;;-3.15;82.12;99501.05;129746;1093;23197;-52
2020/12/12 09:57:38;;;;;;;24.25;11.90;;;;;;;-3.15;82.33;99486.89;125408;1094;24080;-62
2020/12/12 10:00:06;;;;;;;27.87;12.27;;;;;;;-3.14;81.92;99483.23;129744;1093;23186;-63
2020/12/12 10:02:40;;;;;;;25.30;12.60;;;;;;;-3.12;82.05;99492.72;129960;1093;23183;-63
2020/12/12 10:05:07;;;;;;;25.93;11.77;;;;;;;-3.09;82.11;99488.88;129804;1093;23169;-63
2020/12/12 10:07:35;;;;;;;24.87;12.97;;;;;;;-3.07;82.33;99498.37;129950;1093;23232;-63
2020/12/12 10:10:03;;;;;;;34.93;15.90;;;;;;;-3.07;82.73;99487.71;129844;1093;23182;-63
2020/12/12 10:12:31;;;;;;;30.37;13.63;;;;;;;-3.07;82.41;99490.37;129933;1093;23176;-63
2020/12/12 10:14:58;;;;;;;30.53;13.60;;;;;;;-3.05;81.87;99479.55;129805;1093;24253;-63
2020/12/12 10:17:31;;;;;;;21.57;12.50;;;;;;;-3.05;81.73;99483.05;129989;1093;23809;-63
2020/12/12 10:19:59;;;;;;;20.43;11.27;;;;;;;-3.06;82.18;99477.89;129770;1093;23172;-63
2020/12/12 10:22:26;;;;;;;24.03;12.40;;;;;;;-3.05;82.57;99479.55;129946;1093;23229;-63
2020/12/12 10:24:59;;;;;;;32.40;15.23;;;;;;;-3.04;82.72;99475.88;129818;1093;24164;-63
2020/12/12 10:27:27;;;;;;;31.73;14.73;;;;;;;-3.02;82.16;99482.67;129923;1093;23323;-63
2020/12/12 10:29:54;;;;;;;38.70;15.80;;;;;;;-3.13;81.95;99451.08;129740;1093;30224;-63
2020/12/12 10:32:22;;;;;;;42.47;17.80;;;;;;;-3.03;82.40;99472.22;130110;1093;23625;-63
2020/12/12 10:34:49;;;;;;;44.93;18.83;;;;;;;-3.04;82.26;99473.22;129873;1093;23175;-63
2020/12/12 10:37:17;;;;;;;35.83;16.70;;;;;;;-3.04;82.16;99470.55;129909;1100;23287;-63
2020/12/12 10:42:18;;;;;;;33.30;17.53;;;;;;;-3.05;82.03;99472.39;130050;1091;23222;-62
2020/12/12 10:44:45;;;;;;;34.23;16.70;;;;;;;-3.09;81.62;99472.89;130165;1100;23240;-63
2020/12/12 10:47:12;;;;;;;35.27;15.33;;;;;;;-3.13;81.58;99474.23;130016;1093;24194;-63
2020/12/12 10:49:40;;;;;;;36.93;17.17;;;;;;;-3.13;81.51;99466.23;130126;1098;23300;-63
2020/12/12 10:52:08;;;;;;;43.03;18.70;;;;;;;-3.13;82.03;99471.56;129996;1093;23168;-63
2020/12/12 10:54:35;;;;;;;42.77;19.43;;;;;;;-3.11;81.69;99472.23;130184;1093;23619;-63
2020/12/12 10:57:03;;;;;;;37.50;18.97;;;;;;;-3.11;81.35;99465.06;129974;1099;23279;-63
2020/12/12 10:59:30;;;;;;;28.87;15.43;;;;;;;-3.12;81.12;99465.23;130108;1093;23422;-63
2020/12/12 11:01:58;;;;;;;27.80;13.65;;;;;;;-3.17;81.23;99462.28;129988;1093;23187;-63
2020/12/12 11:04:25;;;;;;;32.03;16.67;;;;;;;-3.24;81.06;99457.63;130137;1093;23172;-63
2020/12/12 11:06:53;;;;;;;35.20;15.50;;;;;;;-3.30;81.44;99457.46;129948;1093;23287;-63
2020/12/12 11:09:22;;;;;;;29.13;16.17;;;;;;;-3.32;81.58;99459.48;129955;1100;23177;-63
2020/12/12 11:11:50;;;;;;;30.93;15.63;;;;;;;-3.32;81.73;99460.29;129989;1093;24193;-62
2020/12/12 11:14:17;;;;;;;32.70;17.97;;;;;;;-3.34;81.79;99459.66;130095;1099;23263;-63
2020/12/12 11:16:47;;;;;;;42.40;19.43;;;;;;;-3.32;81.20;99470.14;130095;1093;23209;-63
2020/12/12 11:19:14;;;;;;;27.40;13.97;;;;;;;-3.34;81.75;99470.31;130232;1092;23193;-63
2020/12/12 11:21:42;;;;;;;30.07;15.37;;;;;;;-3.33;81.87;99468.48;130108;1092;23166;-63